• Join FlightAware (Why Join?)
  • Login
  • US Flag 
02:11AM EDT


 

Airport Tracker/Info


-or-


 

Live Flight TrackerFlight Track Log ✈ EJA122 ✈ 23-Apr-2013 ✈ KSAV - KPNE

Flight Track Log - Related Links

Times and Time Zones

All times are in EDT time to prevent confusion due to time zone crossing. See the EJA122 flight status page for this flight to view local times or setup timezone preferences in your user account.

Time Position Orientation Groundspeed Altitude Reporting Facility
EDT Latitude Longitude Course Direction KTS MPH feet Rate Location/Type
01:08PM 32.2336 -81.1217 52° Northeast 256 295 7,400  Level Jacksonville Center
01:09PM 32.2825 -81.0422 54° Northeast 275 316 10,400 2,880 Climbing Jacksonville Center
01:10PM 32.3397 -80.9625 50° Northeast 289 333 13,200 2,100 Climbing Jacksonville Center
01:11PM 32.4119 -80.9117 31° Northeast 296 341 14,700 1,500 Climbing Jacksonville Center
01:12PM 32.4713 -80.6680 52° Northeast  Level FlightAware Approximate
01:12PM 32.4883 -80.8608 29° Northeast 317 365 16,200  Level Jacksonville Center
01:13PM 32.5436 -80.5599 52° Northeast  Level FlightAware Approximate
01:13PM 32.5731 -80.8044 29° Northeast 332 382 17,700  Level Jacksonville Center
01:14PM 32.6157 -80.4515 52° Northeast  Level FlightAware Approximate
01:14PM 32.6578 -80.7458 30° Northeast 338 389 18,900  Level Jacksonville Center
01:15PM 32.7444 -80.6894 29° Northeast 344 396 20,300 1,440 Climbing Jacksonville Center
01:16PM 32.8269 -80.6331 30° Northeast 344 396 21,800 1,440 Climbing Jacksonville Center
01:17PM 32.9094 -80.5742 31° Northeast 344 396 23,200 1,440 Climbing Jacksonville Center
01:18PM 32.9917 -80.5175 30° Northeast 344 396 24,700 1,500 Climbing Jacksonville Center
01:19PM 33.0825 -80.4606 28° Northeast 344 396 26,200 1,500 Climbing Jacksonville Center
01:20PM 33.1586 -80.4039 32° Northeast 349 402 27,700 1,500 Climbing Jacksonville Center
01:21PM 33.2536 -80.3442 28° Northeast 349 402 29,300 1,500 Climbing Jacksonville Center
01:22PM 33.3358 -80.2844 31° Northeast 344 396 30,700 1,440 Climbing Jacksonville Center
01:23PM 33.4161 -80.2300 30° Northeast 339 390 32,200 1,500 Climbing Jacksonville Center
01:24PM 33.4983 -80.1728 30° Northeast 339 390 33,700 1,200 Climbing Jacksonville Center
01:25PM 33.5783 -80.1178 30° Northeast 334 384 34,700 600 Climbing Jacksonville Center
01:26PM 33.6606 -80.0606 30° Northeast 329 379 35,000 120 Climbing Jacksonville Center
01:27PM 33.7489 -79.9950 32° Northeast 346 398 35,000  Level Jacksonville Center
01:28PM 33.8433 -79.9294 30° Northeast 366 421 35,000  Level Jacksonville Center
01:29PM 33.9461 -79.8611 29° Northeast 385 443 35,000  Level Jacksonville Center
01:30PM 34.0444 -79.7900 31° Northeast 401 461 35,000  Level Jacksonville Center
01:32PM 34.2128 -79.6725 30° Northeast 414 476 35,000  Level Washington Center
01:33PM 34.3192 -79.6125 25° Northeast 414 476 35,000  Level Washington Center
01:34PM 34.4233 -79.5572 24° Northeast 408 470 35,000  Level Washington Center
01:35PM 34.5272 -79.5042 23° Northeast 408 470 35,000  Level Washington Center
01:36PM 34.6333 -79.4489 23° Northeast 403 464 35,000  Level Washington Center
01:37PM 34.7353 -79.3931 24° Northeast 403 464 35,000  Level Washington Center
01:38PM 34.8414 -79.3397 22° Northeast 403 464 35,000 180 Level Washington Center
01:39PM 34.9472 -79.2839 23° Northeast 403 464 35,400 660 Climbing Washington Center
01:40PM 35.0492 -79.2303 23° Northeast 403 464 36,400 780 Climbing Washington Center
01:41PM 35.1489 -79.1761 24° Northeast 403 464 37,000 300 Climbing Washington Center
01:42PM 35.2528 -79.1222 23° Northeast 403 464 37,000  Level Washington Center
01:43PM 35.3564 -79.0683 23° Northeast 409 471 37,000  Level Washington Center
01:44PM 35.4667 -79.0069 24° Northeast 409 471 37,000  Level Washington Center
01:45PM 35.5747 -78.9503 23° Northeast 409 471 37,000  Level Washington Center
01:46PM 35.6828 -78.8908 24° Northeast 409 471 37,000  Level Washington Center
01:47PM 35.7889 -78.8311 25° Northeast 409 471 37,000  Level Washington Center
01:48PM 35.8947 -78.7739 24° Northeast 409 471 37,000  Level Washington Center
01:49PM 36.0092 -78.7067 25° Northeast 402 463 37,000  Level Washington Center
01:50PM 36.1128 -78.6492 24° Northeast 402 463 37,000 -240 Level Washington Center
01:51PM 36.2131 -78.5706 32° Northeast 407 468 36,600 -720 Descending Washington Center
01:52PM 36.2967 -78.4706 44° Northeast 407 468 35,600 -1,020 Descending Washington Center
01:53PM 36.3764 -78.3731 45° Northeast 407 468 34,600 -840 Descending Washington Center
01:54PM 36.4536 -78.2700 47° Northeast 407 468 34,000 -300 Descending Washington Center
01:55PM 36.5433 -78.1825 38° Northeast 396 456 34,000 -360 Level Washington Center
01:56PM 36.6464 -78.1444 17° North 378 435 33,300 -540 Descending Washington Center
01:57PM 36.7306 -78.1136 16° North 365 420 33,000 -180 Descending Washington Center
01:58PM 36.8333 -78.0806 14° North 365 420 33,000  Level Washington Center
01:59PM 36.9322 -78.0447 16° North 365 420 33,000  Level Washington Center
02:00PM 37.0308 -78.0089 16° North 365 420 33,000  Level Washington Center
02:01PM 37.1297 -77.9728 16° North 360 414 33,000  Level Washington Center
02:02PM 37.2283 -77.9394 15° North 360 414 33,000 -60 Level Washington Center
02:03PM 37.3272 -77.9033 16° North 360 414 32,900 -960 Descending Washington Center
02:04PM 37.4281 -77.8672 16° North 360 414 31,100 -1,920 Descending Washington Center
02:05PM 37.5269 -77.8228 20° North 365 420 29,100 -1,080 Descending Washington Center
02:06PM 37.6200 -77.7444 34° Northeast 370 426 29,000 -60 Descending Washington Center
02:07PM 37.7133 -77.6603 35° Northeast 385 443 29,000  Level Washington Center
02:08PM 37.8044 -77.5789 35° Northeast 398 458 29,000 -240 Level Washington Center
02:09PM 37.8953 -77.4969 35° Northeast 398 458 28,600 -1,020 Descending Washington Center
02:10PM 37.9842 -77.4150 36° Northeast 398 458 27,000 -1,500 Descending Washington Center
02:11PM 38.0689 -77.3378 36° Northeast 391 450 25,600 -1,500 Descending Washington Center
02:12PM 38.1781 -77.2822 22° Northeast 373 429 24,000 -840 Descending Washington Center
02:13PM 38.2783 -77.2714 North 361 415 24,000  Level Washington Center
02:14PM 38.3689 -77.2072 29° Northeast 361 415 24,000  Level Washington Center
02:15PM 38.4431 -77.1081 46° Northeast 361 415 24,000  Level Washington Center
02:16PM 38.5172 -77.0061 47° Northeast 374 430 24,000  Level Washington Center
02:17PM 38.5894 -76.9039 48° Northeast 379 436 24,000  Level Washington Center
02:18PM 38.6633 -76.8014 47° Northeast 384 442 24,000 -540 Level Washington Center
02:19PM 38.7167 -76.6797 61° Northeast 384 442 23,000 -1,320 Descending Washington Center
02:20PM 38.7447 -76.5500 74° East 377 434 21,400 -1,500 Descending Washington Center
02:21PM 38.7686 -76.4278 76° East 363 418 20,000 -1,500 Descending Washington Center
02:22PM 38.7922 -76.3133 75° East 350 403 18,500 -1,500 Descending Washington Center
02:23PM 38.8181 -76.1964 74° East 340 391 17,100 -1,320 Descending Washington Center
02:24PM 38.8433 -76.0981 72° East 334 384 15,900 -1,080 Descending Washington Center
02:25PM 38.8647 -75.9861 76° East 329 379 15,000 -480 Descending Washington Center
02:26PM 38.8858 -75.8797 76° East 314 361 15,000  Level Washington Center
02:27PM 38.9361 -75.7917 54° Northeast 299 344 15,000  Level Washington Center
02:28PM 39.0069 -75.7278 35° Northeast 291 335 15,000  Level Washington Center
02:29PM 39.0800 -75.6772 28° Northeast 297 342 15,000 -480 Level Washington Center
02:30PM 39.1825 -75.6658 North 303 349 14,000 -1,080 Descending FAA TRACON SMA TRACON (SMA)
02:31PM 39.2075 -75.6628 North 295 339 13,500 -1,740 Descending FAA TRACON SMA TRACON (SMA)
02:31PM 39.2389 -75.6594 North 294 338 12,900 -1,680 Descending FAA TRACON SMA TRACON (SMA)
02:31PM 39.2639 -75.6567 North 293 337 12,400 -1,380 Descending FAA TRACON SMA TRACON (SMA)
02:32PM 39.2925 -75.6444 18° North 294 338 12,000 -600 Descending FAA TRACON SMA TRACON (SMA)
02:32PM 39.3122 -75.6275 34° Northeast 273 314 12,000  Level FAA TRACON SMA TRACON (SMA)
02:32PM 39.3339 -75.6097 32° Northeast 282 325 12,000  Level FAA TRACON SMA TRACON (SMA)
02:33PM 39.3547 -75.5925 33° Northeast 288 331 12,000  Level FAA TRACON SMA TRACON (SMA)
02:33PM 39.3811 -75.5703 33° Northeast 291 335 12,000  Level FAA TRACON SMA TRACON (SMA)
02:33PM 39.4042 -75.5594 20° North 294 338 12,000  Level FAA TRACON SMA TRACON (SMA)
02:34PM 39.4350 -75.5506 13° North 298 343 12,000  Level FAA TRACON SMA TRACON (SMA)
02:34PM 39.4583 -75.5425 15° North 288 331 12,000  Level FAA TRACON SMA TRACON (SMA)
02:34PM 39.4811 -75.5333 17° North 286 329 12,000  Level FAA TRACON SMA TRACON (SMA)
02:35PM 39.5061 -75.5261 13° North 285 328 12,000  Level FAA TRACON SMA TRACON (SMA)
02:35PM 39.5361 -75.5167 14° North 286 329 12,000  Level FAA TRACON SMA TRACON (SMA)
02:35PM 39.5597 -75.5089 14° North 286 329 12,000  Level FAA TRACON SMA TRACON (SMA)
02:36PM 39.5842 -75.5011 14° North 288 331 12,000  Level FAA TRACON SMA TRACON (SMA)
02:36PM 39.6142 -75.4914 14° North 289 333 12,000  Level FAA TRACON SMA TRACON (SMA)
02:36PM 39.6386 -75.4831 15° North 291 335 12,000  Level FAA TRACON SMA TRACON (SMA)
02:37PM 39.6619 -75.4583 39° Northeast 298 343 12,000  Level FAA TRACON SMA TRACON (SMA)
02:37PM 39.6747 -75.4278 61° Northeast 303 349 12,000  Level FAA TRACON SMA TRACON (SMA)
02:37PM 39.6864 -75.3975 63° Northeast 302 348 12,000  Level FAA TRACON SMA TRACON (SMA)
02:38PM 39.6975 -75.3678 64° Northeast 301 346 12,000  Level FAA TRACON SMA TRACON (SMA)
02:38PM 39.7117 -75.3303 64° Northeast 302 348 12,000  Level FAA TRACON SMA TRACON (SMA)
02:38PM 39.7231 -75.3003 64° Northeast 301 346 12,000  Level FAA TRACON SMA TRACON (SMA)
02:39PM 39.7342 -75.2703 64° Northeast 301 346 12,000  Level FAA TRACON SMA TRACON (SMA)
02:39PM 39.7483 -75.2336 63° Northeast 300 345 12,000  Level FAA TRACON SMA TRACON (SMA)
02:39PM 39.7589 -75.2031 66° East 300 345 12,000  Level FAA TRACON SMA TRACON (SMA)
02:40PM 39.7725 -75.1658 65° Northeast 301 346 12,000  Level FAA TRACON SMA TRACON (SMA)
02:40PM 39.7842 -75.1364 63° Northeast 300 345 12,000 -480 Level FAA TRACON SMA TRACON (SMA)
02:40PM 39.7947 -75.1064 65° Northeast 299 344 11,700 -1,080 Descending FAA TRACON SMA TRACON (SMA)
02:41PM 39.8053 -75.0672 71° East 297 342 11,300 -1,080 Descending FAA TRACON SMA TRACON (SMA)
02:41PM 39.8122 -75.0358 74° East 306 352 11,000 -1,380 Descending FAA TRACON SMA TRACON (SMA)
02:41PM 39.8194 -75.0033 74° East 299 344 10,400 -1,980 Descending FAA TRACON SMA TRACON (SMA)
02:42PM 39.8278 -74.9633 75° East 299 344 9,700 -1,800 Descending FAA TRACON SMA TRACON (SMA)
02:42PM 39.8347 -74.9319 74° East 295 339 9,200 -1,080 Descending FAA TRACON SMA TRACON (SMA)
02:42PM 39.8433 -74.9019 69° East 292 336 9,000 -300 Descending FAA TRACON SMA TRACON (SMA)
02:43PM 39.8692 -74.8831 29° Northeast 298 343 9,000  Level FAA TRACON SMA TRACON (SMA)
02:43PM 39.8914 -74.8819 North 277 319 9,000  Level FAA TRACON SMA TRACON (SMA)
02:43PM 39.9158 -74.8919 343° North 279 321 9,000 -180 Level FAA TRACON SMA TRACON (SMA)
02:44PM 39.9439 -74.9031 343° North 277 319 8,900 -900 Descending FAA TRACON SMA TRACON (SMA)
02:44PM 39.9661 -74.9136 340° North 274 315 8,400 -1,980 Descending FAA TRACON SMA TRACON (SMA)
02:44PM 39.9881 -74.9242 340° North 275 316 7,600 -2,880 Descending FAA TRACON SMA TRACON (SMA)
02:45PM 40.0150 -74.9378 339° North 273 314 6,500 -3,000 Descending FAA TRACON SMA TRACON (SMA)
02:45PM 40.0353 -74.9544 328° Northwest 274 315 5,600 -2,580 Descending FAA TRACON SMA TRACON (SMA)
02:45PM 40.0592 -74.9736 328° Northwest 265 305 4,800 -2,100 Descending FAA TRACON SMA TRACON (SMA)
02:46PM 40.0792 -74.9908 327° Northwest 270 311 4,200 -1,200 Descending FAA TRACON SMA TRACON (SMA)
02:46PM 40.0953 -75.0086 320° Northwest 246 283 4,000 -300 Descending FAA TRACON SMA TRACON (SMA)
02:46PM 40.0989 -75.0364 280° West 213 245 4,000  Level FAA TRACON SMA TRACON (SMA)
02:47PM 40.0956 -75.0594 259° West 204 235 4,000  Level FAA TRACON SMA TRACON (SMA)
02:47PM 40.0919 -75.0822 258° West 196 226 4,000  Level FAA TRACON SMA TRACON (SMA)
02:47PM 40.0872 -75.1092 257° West 197 227 4,000 -600 Level FAA TRACON SMA TRACON (SMA)
02:48PM 40.0842 -75.1308 260° West 198 228 3,600 -1,380 Descending FAA TRACON SMA TRACON (SMA)
02:48PM 40.0811 -75.1528 260° West 199 229 3,100 -1,500 Descending FAA TRACON SMA TRACON (SMA)
02:48PM 40.0769 -75.1772 257° West 201 231 2,600 -1,500 Descending FAA TRACON SMA TRACON (SMA)